createdAt,value
2022-08-19T00:02:00.194Z,26.73
2022-08-19T00:04:31.137Z,25.17
2022-08-19T00:07:01.849Z,27.95
2022-08-19T00:09:31.017Z,27.73
2022-08-19T00:12:00.510Z,26.98
2022-08-19T00:14:32.771Z,25.73
2022-08-19T00:17:03.425Z,28.25
2022-08-19T00:19:32.439Z,27.33
2022-08-19T00:22:03.400Z,26.20
2022-08-19T00:24:32.190Z,25.17
2022-08-19T00:27:25.109Z,25.83
2022-08-19T00:29:52.293Z,30.02
2022-08-19T00:32:22.549Z,28.40
2022-08-19T00:34:54.446Z,25.75
2022-08-19T00:37:27.712Z,26.98
2022-08-19T00:39:57.674Z,29.20
2022-08-19T00:42:29.370Z,28.08
2022-08-19T00:44:58.244Z,28.90
2022-08-19T00:47:26.992Z,27.70
2022-08-19T00:50:00.223Z,27.30
2022-08-19T00:52:34.311Z,27.42
2022-08-19T00:55:05.022Z,30.02
2022-08-19T00:57:38.794Z,28.60
2022-08-19T01:00:12.003Z,29.98
2022-08-19T01:02:42.357Z,28.77
2022-08-19T01:05:15.960Z,34.88
2022-08-19T01:07:46.499Z,31.20
2022-08-19T01:10:20.348Z,33.30
2022-08-19T01:12:49.598Z,33.63
2022-08-19T01:15:21.785Z,29.92
2022-08-19T01:17:51.462Z,30.48
2022-08-19T01:20:24.114Z,30.30
2022-08-19T01:22:56.843Z,31.27
2022-08-19T01:25:29.761Z,29.90
2022-08-19T01:28:03.039Z,28.95
2022-08-19T01:30:39.737Z,28.73
2022-08-19T01:33:13.305Z,28.88
2022-08-19T01:35:43.190Z,30.92
2022-08-19T01:38:22.412Z,29.10
2022-08-19T01:40:51.175Z,28.77
2022-08-19T01:43:20.169Z,27.85
2022-08-19T01:45:48.861Z,29.88
2022-08-19T01:48:17.687Z,27.27
2022-08-19T01:50:46.470Z,26.40
2022-08-19T01:53:16.503Z,26.90
2022-08-19T01:55:46.198Z,26.58
2022-08-19T01:58:19.702Z,26.10
2022-08-19T02:00:48.668Z,25.60
2022-08-19T02:03:17.745Z,26.48
2022-08-19T02:05:46.992Z,25.73
2022-08-19T02:08:17.109Z,26.88
2022-08-19T02:10:46.287Z,28.50
2022-08-19T02:13:15.429Z,26.52
2022-08-19T02:15:44.206Z,28.30
2022-08-19T02:18:12.921Z,31.23
2022-08-19T02:20:43.719Z,28.48
2022-08-19T02:23:16.045Z,32.33
2022-08-19T02:25:48.914Z,29.55
2022-08-19T02:28:19.031Z,27.88
2022-08-19T02:30:48.854Z,28.35
2022-08-19T02:33:18.022Z,32.13
2022-08-19T02:35:47.675Z,29.55
2022-08-19T02:38:27.236Z,32.10
2022-08-19T02:40:59.343Z,32.72
2022-08-19T02:43:33.819Z,29.77
2022-08-19T02:46:04.175Z,32.00
2022-08-19T02:48:33.989Z,33.10
2022-08-19T02:51:02.813Z,31.30
2022-08-19T02:53:31.543Z,29.05
2022-08-19T02:56:01.627Z,29.05
2022-08-19T02:58:31.032Z,29.15
2022-08-19T03:00:59.924Z,30.10
2022-08-19T03:03:28.950Z,30.88
2022-08-19T03:06:17.164Z,31.25
2022-08-19T03:08:47.677Z,30.73
2022-08-19T03:11:19.647Z,31.13
2022-08-19T03:13:49.929Z,33.10
2022-08-19T03:16:19.339Z,33.08
2022-08-19T03:18:48.291Z,33.90
2022-08-19T03:21:18.425Z,32.17
2022-08-19T03:23:47.612Z,29.65
2022-08-19T03:26:17.812Z,31.77
2022-08-19T03:28:51.187Z,32.30
2022-08-19T03:31:44.424Z,30.20
2022-08-19T03:34:20.165Z,30.30
2022-08-19T03:36:49.404Z,32.92
2022-08-19T03:39:18.850Z,31.23
2022-08-19T03:42:32.182Z,31.52
2022-08-19T03:44:39.815Z,33.60
2022-08-19T03:47:08.846Z,32.45
2022-08-19T03:49:37.757Z,32.10
2022-08-19T03:52:08.543Z,33.13
2022-08-19T03:54:39.068Z,32.65
2022-08-19T03:57:09.961Z,35.55
2022-08-19T03:59:40.978Z,31.13
2022-08-19T04:02:12.565Z,33.00
2022-08-19T04:04:44.440Z,36.58
2022-08-19T04:07:16.715Z,33.13
2022-08-19T04:09:46.289Z,31.05
2022-08-19T04:12:16.741Z,32.28
2022-08-19T04:14:45.464Z,33.22
2022-08-19T04:17:15.210Z,32.85
2022-08-19T04:19:44.738Z,34.13
2022-08-19T04:22:13.599Z,38.00
2022-08-19T04:24:42.366Z,32.88
2022-08-19T04:27:11.078Z,33.40
2022-08-19T04:29:42.343Z,33.22
2022-08-19T04:32:16.202Z,31.15
2022-08-19T04:35:01.436Z,35.30
2022-08-19T04:37:34.916Z,35.80
2022-08-19T04:40:24.852Z,35.40
2022-08-19T04:42:54.524Z,34.53
2022-08-19T04:45:24.875Z,34.85
2022-08-19T04:48:19.716Z,33.50
2022-08-19T04:50:46.977Z,33.88
2022-08-19T04:53:16.234Z,36.28
2022-08-19T04:55:45.001Z,32.03
2022-08-19T04:58:13.746Z,35.75
2022-08-19T05:00:44.626Z,29.83
2022-08-19T05:03:14.091Z,34.75
2022-08-19T05:05:45.376Z,32.78
2022-08-19T05:08:19.462Z,35.35
2022-08-19T05:10:59.710Z,33.85
2022-08-19T05:13:29.146Z,36.22
2022-08-19T05:16:00.899Z,36.80
2022-08-19T05:18:47.295Z,35.40
2022-08-19T05:21:36.022Z,43.05
2022-08-19T05:24:08.710Z,35.78
2022-08-19T05:26:37.614Z,31.55
2022-08-19T05:29:06.886Z,34.47
2022-08-19T05:31:37.855Z,38.22
2022-08-19T05:34:18.463Z,35.22
2022-08-19T05:36:50.236Z,35.40
2022-08-19T05:39:21.383Z,34.65
2022-08-19T05:41:52.673Z,34.47
2022-08-19T05:44:22.381Z,34.85
2022-08-19T05:46:54.250Z,37.35
2022-08-19T05:49:24.736Z,34.83
2022-08-19T05:51:53.890Z,34.53
2022-08-19T05:54:23.969Z,35.55
2022-08-19T05:56:53.967Z,33.22
2022-08-19T05:59:24.986Z,33.92
2022-08-19T06:01:57.960Z,39.30
2022-08-19T06:04:27.360Z,32.22
2022-08-19T06:06:57.374Z,32.85
2022-08-19T06:09:26.364Z,33.75
2022-08-19T06:11:59.816Z,34.75
2022-08-19T06:14:31.905Z,33.50
2022-08-19T06:17:07.024Z,36.72
2022-08-19T06:19:41.062Z,37.75
2022-08-19T06:22:11.257Z,31.90
2022-08-19T06:24:39.939Z,30.65
2022-08-19T06:27:08.752Z,33.47
2022-08-19T06:29:37.618Z,32.42
2022-08-19T06:32:08.162Z,33.55
2022-08-19T06:34:37.346Z,30.67
2022-08-19T06:37:06.783Z,32.60
2022-08-19T06:39:37.568Z,32.10
2022-08-19T06:42:11.019Z,31.05
2022-08-19T06:44:43.131Z,32.33
2022-08-19T06:47:23.813Z,34.70
2022-08-19T06:49:56.509Z,33.60
2022-08-19T06:52:30.391Z,33.58
2022-08-19T06:54:59.593Z,34.85
2022-08-19T06:57:32.394Z,34.08
2022-08-19T07:00:01.673Z,31.25
2022-08-19T07:02:31.733Z,31.10
2022-08-19T07:05:03.565Z,30.50
2022-08-19T07:07:35.576Z,29.30
2022-08-19T07:10:07.885Z,30.77
2022-08-19T07:12:38.283Z,31.13
2022-08-19T07:15:09.676Z,32.42
2022-08-19T07:17:41.716Z,29.02
2022-08-19T07:20:11.964Z,30.23
2022-08-19T07:22:41.516Z,30.80
2022-08-19T07:25:11.913Z,29.92
2022-08-19T07:27:40.846Z,30.60
2022-08-19T07:30:12.854Z,29.90
2022-08-19T07:32:43.410Z,30.17
2022-08-19T07:35:12.346Z,26.63
2022-08-19T07:37:45.134Z,28.38
2022-08-19T07:40:14.875Z,28.55
2022-08-19T07:42:44.475Z,26.92
2022-08-19T07:45:13.400Z,26.60
2022-08-19T07:47:50.160Z,33.22
2022-08-19T07:50:21.407Z,27.45
2022-08-19T07:52:50.804Z,30.45
2022-08-19T07:55:41.446Z,27.60
2022-08-19T07:58:12.163Z,28.65
2022-08-19T08:00:41.219Z,29.80
2022-08-19T08:03:11.656Z,25.67
2022-08-19T08:06:09.501Z,27.15
2022-08-19T08:08:55.715Z,31.02
2022-08-19T08:11:27.064Z,27.75
2022-08-19T08:14:00.691Z,27.15
2022-08-19T08:16:35.764Z,25.95
2022-08-19T08:19:20.622Z,28.38
2022-08-19T08:21:55.734Z,28.00
2022-08-19T08:24:28.691Z,28.13
2022-08-19T08:26:58.648Z,23.17
2022-08-19T08:29:34.722Z,25.30
2022-08-19T08:32:14.135Z,25.30
2022-08-19T08:34:45.098Z,27.98
2022-08-19T08:37:18.769Z,25.00
2022-08-19T08:39:48.414Z,29.10
2022-08-19T08:42:25.129Z,26.08
2022-08-19T08:45:00.600Z,26.50
2022-08-19T08:47:33.958Z,25.75
2022-08-19T08:50:08.442Z,26.65
2022-08-19T08:52:39.718Z,25.00
2022-08-19T08:55:21.394Z,24.17
2022-08-19T08:57:55.805Z,23.00
2022-08-19T09:00:28.515Z,22.08
2022-08-19T09:02:59.377Z,26.88
2022-08-19T09:05:47.857Z,27.00
2022-08-19T09:08:30.258Z,23.45
2022-08-19T09:10:59.704Z,24.40
2022-08-19T09:13:37.646Z,22.88
2022-08-19T09:16:09.571Z,26.10
2022-08-19T09:18:45.478Z,24.15
2022-08-19T09:21:15.989Z,24.88
2022-08-19T09:23:46.450Z,25.75
2022-08-19T09:26:23.703Z,22.55
2022-08-19T09:29:12.668Z,24.23
2022-08-19T09:31:41.822Z,26.17
2022-08-19T09:34:21.013Z,23.73
2022-08-19T09:36:54.652Z,24.67
2022-08-19T09:39:24.169Z,23.45
2022-08-19T09:41:53.904Z,24.48
2022-08-19T09:44:22.912Z,22.75
2022-08-19T09:46:52.297Z,22.35
2022-08-19T09:49:24.372Z,21.42
2022-08-19T09:51:57.072Z,21.73
2022-08-19T09:54:25.996Z,23.35
2022-08-19T09:56:55.192Z,20.35
2022-08-19T09:59:23.994Z,23.25
2022-08-19T10:01:53.038Z,22.80
2022-08-19T10:04:23.089Z,22.42
2022-08-19T10:06:58.195Z,20.15
2022-08-19T10:09:34.301Z,23.65
2022-08-19T10:12:06.070Z,20.20
2022-08-19T10:14:35.720Z,20.75
2022-08-19T10:17:19.142Z,25.00
2022-08-19T10:19:55.670Z,19.85
2022-08-19T10:22:26.571Z,21.55
2022-08-19T10:24:55.665Z,18.98
2022-08-19T10:27:26.270Z,18.77
2022-08-19T10:29:55.572Z,21.15
2022-08-19T10:32:33.706Z,18.30
2022-08-19T10:35:05.427Z,17.73
2022-08-19T10:37:36.585Z,18.13
2022-08-19T10:40:20.704Z,18.85
2022-08-19T10:42:49.484Z,18.15
2022-08-19T10:45:18.268Z,20.90
2022-08-19T10:47:47.685Z,19.52
2022-08-19T10:50:34.081Z,19.52
2022-08-19T10:53:09.751Z,20.45
2022-08-19T10:55:56.196Z,19.70
2022-08-19T10:58:26.334Z,19.50
2022-08-19T11:00:57.539Z,18.00
2022-08-19T11:03:28.804Z,19.30
2022-08-19T11:06:01.760Z,20.48
2022-08-19T11:08:32.490Z,19.17
2022-08-19T11:11:04.140Z,19.27
2022-08-19T11:13:36.169Z,18.50
2022-08-19T11:16:09.359Z,18.65
2022-08-19T11:18:41.321Z,24.25
2022-08-19T11:21:12.822Z,19.17
2022-08-19T11:23:43.143Z,19.63
2022-08-19T11:26:12.201Z,16.33
2022-08-19T11:28:41.010Z,18.48
2022-08-19T11:31:13.636Z,16.17
2022-08-19T11:33:48.187Z,18.45
2022-08-19T11:36:17.455Z,21.02
2022-08-19T11:38:49.244Z,18.30
2022-08-19T11:41:20.169Z,17.42
2022-08-19T11:43:49.300Z,17.50
2022-08-19T11:46:19.232Z,19.10
2022-08-19T11:48:49.067Z,18.50
2022-08-19T11:51:20.806Z,19.85
2022-08-19T11:53:51.675Z,21.90
2022-08-19T11:56:21.095Z,21.90
2022-08-19T11:58:50.260Z,20.10
2022-08-19T12:01:21.197Z,20.80
2022-08-19T12:03:52.612Z,23.30
2022-08-19T12:06:24.925Z,20.50
2022-08-19T12:08:55.813Z,19.38
2022-08-19T12:11:25.539Z,18.27
2022-08-19T12:13:55.298Z,17.05
2022-08-19T12:16:27.664Z,17.88
2022-08-19T12:18:57.361Z,15.25
2022-08-19T12:21:28.922Z,15.82
2022-08-19T12:24:00.827Z,15.50
2022-08-19T12:26:32.307Z,16.88
2022-08-19T12:29:01.687Z,16.75
2022-08-19T12:31:30.774Z,14.65
2022-08-19T12:33:59.798Z,15.55
2022-08-19T12:36:28.554Z,14.98
2022-08-19T12:39:00.675Z,15.50
2022-08-19T12:41:29.521Z,15.00
2022-08-19T12:43:59.228Z,16.98
2022-08-19T12:46:27.936Z,15.32
2022-08-19T12:48:56.644Z,14.60
2022-08-19T12:51:26.289Z,14.70
2022-08-19T12:53:54.968Z,16.17
2022-08-19T12:56:25.502Z,16.58
2022-08-19T12:58:54.267Z,21.17
2022-08-19T13:01:23.510Z,23.85
2022-08-19T13:03:54.131Z,20.73
2022-08-19T13:06:23.795Z,21.15
2022-08-19T13:08:55.461Z,33.35
2022-08-19T13:11:28.124Z,37.15
2022-08-19T13:13:57.072Z,37.25
2022-08-19T13:16:25.858Z,37.55
2022-08-19T13:18:54.630Z,34.67
2022-08-19T13:21:25.215Z,48.60
2022-08-19T13:23:55.125Z,41.50
2022-08-19T13:26:24.081Z,45.45
2022-08-19T13:29:11.899Z,43.83
2022-08-19T13:32:00.986Z,45.80
2022-08-19T13:34:33.566Z,50.00
2022-08-19T13:37:04.920Z,43.67
2022-08-19T13:39:34.425Z,46.53
2022-08-19T13:42:05.693Z,46.67
2022-08-19T13:44:36.090Z,56.55
2022-08-19T13:47:08.101Z,49.97
2022-08-19T13:49:37.986Z,43.85
2022-08-19T13:52:07.067Z,48.05
2022-08-19T13:54:35.829Z,51.85
2022-08-19T13:57:05.149Z,54.55
2022-08-19T13:59:35.254Z,53.90
2022-08-19T14:02:06.376Z,60.72
2022-08-19T14:04:35.035Z,52.58
2022-08-19T14:07:04.368Z,57.90
2022-08-19T14:09:33.258Z,96.70
2022-08-19T14:12:01.965Z,174.68
2022-08-19T14:14:30.988Z,66.53
2022-08-19T14:17:01.086Z,101.30
2022-08-19T14:19:30.161Z,113.93
2022-08-19T14:21:59.597Z,96.55
2022-08-19T14:24:28.281Z,132.63
2022-08-19T14:26:57.523Z,115.97
2022-08-19T14:29:26.526Z,109.32
2022-08-19T14:31:55.221Z,89.35
2022-08-19T14:34:25.918Z,65.57
2022-08-19T14:36:54.869Z,61.97
2022-08-19T14:39:23.565Z,49.22
2022-08-19T14:41:52.566Z,38.33
2022-08-19T14:44:21.365Z,33.85
2022-08-19T14:46:50.398Z,38.83
2022-08-19T14:49:20.050Z,38.22
2022-08-19T14:51:50.403Z,28.58
2022-08-19T14:54:19.150Z,32.60
2022-08-19T14:56:47.943Z,40.05
2022-08-19T14:59:16.745Z,45.30
2022-08-19T15:01:45.660Z,66.05
2022-08-19T15:04:14.419Z,61.30
2022-08-19T15:06:44.001Z,49.95
2022-08-19T15:09:14.037Z,40.15
2022-08-19T15:11:43.685Z,38.05
2022-08-19T15:14:12.410Z,42.63
2022-08-19T15:16:42.843Z,35.63
2022-08-19T15:19:12.734Z,38.65
2022-08-19T15:21:41.384Z,41.47
2022-08-19T15:24:10.436Z,39.13
2022-08-19T15:26:40.447Z,89.03
2022-08-19T15:29:09.267Z,64.93
2022-08-19T15:31:38.900Z,81.38
2022-08-19T15:34:08.518Z,66.53
2022-08-19T15:36:37.922Z,44.88
2022-08-19T15:39:07.469Z,56.08
2022-08-19T15:41:37.139Z,45.30
2022-08-19T15:44:10.460Z,37.33
2022-08-19T15:46:41.477Z,37.92
2022-08-19T15:49:10.880Z,38.00
2022-08-19T15:51:43.078Z,36.65
2022-08-19T15:54:14.259Z,46.13
2022-08-19T15:57:00.605Z,39.92
2022-08-19T15:59:48.152Z,37.88
2022-08-19T16:02:37.546Z,39.72
2022-08-19T16:05:26.028Z,60.03
2022-08-19T16:07:55.283Z,59.70
2022-08-19T16:10:26.258Z,54.05
2022-08-19T16:12:56.227Z,54.17
2022-08-19T16:15:28.784Z,71.43
2022-08-19T16:18:02.605Z,56.58
2022-08-19T16:20:33.075Z,37.63
2022-08-19T16:23:08.451Z,49.47
2022-08-19T16:25:39.513Z,54.03
2022-08-19T16:28:10.279Z,45.05
2022-08-19T16:30:50.949Z,55.10
2022-08-19T16:33:23.146Z,61.10
2022-08-19T16:36:00.032Z,57.15
2022-08-19T16:38:34.576Z,58.15
2022-08-19T16:41:04.242Z,33.72
2022-08-19T16:43:34.425Z,62.35
2022-08-19T16:46:05.662Z,68.43
2022-08-19T16:48:34.749Z,66.28
2022-08-19T16:51:09.649Z,59.60
2022-08-19T16:53:53.317Z,75.00
2022-08-19T16:56:28.773Z,59.13
2022-08-19T16:59:04.795Z,56.95
2022-08-19T17:01:41.959Z,64.57
2022-08-19T17:04:13.703Z,72.32
2022-08-19T17:06:45.523Z,78.38
2022-08-19T17:09:16.041Z,67.55
2022-08-19T17:11:44.730Z,63.60
2022-08-19T17:14:13.438Z,60.70
2022-08-19T17:16:43.526Z,50.85
2022-08-19T17:19:12.339Z,84.90
2022-08-19T17:21:41.524Z,80.47
2022-08-19T17:24:10.308Z,79.78
2022-08-19T17:26:39.759Z,73.45
2022-08-19T17:29:08.669Z,59.85
2022-08-19T17:31:37.501Z,78.78
2022-08-19T17:34:09.245Z,89.57
2022-08-19T17:36:38.204Z,67.65
2022-08-19T17:39:06.994Z,67.32
2022-08-19T17:41:35.940Z,60.70
2022-08-19T17:44:05.470Z,39.17
2022-08-19T17:46:34.269Z,40.83
2022-08-19T17:49:03.250Z,44.13
2022-08-19T17:51:45.890Z,63.00
2022-08-19T17:54:18.687Z,53.85
2022-08-19T17:56:48.379Z,38.53
2022-08-19T17:59:17.242Z,47.30
2022-08-19T18:01:53.591Z,42.55
2022-08-19T18:04:24.832Z,36.45
2022-08-19T18:06:56.027Z,50.67
2022-08-19T18:09:26.734Z,55.20
2022-08-19T18:11:57.708Z,56.28
2022-08-19T18:14:33.651Z,52.92
2022-08-19T18:17:06.161Z,74.63
2022-08-19T18:19:41.893Z,43.90
2022-08-19T18:22:22.360Z,40.65
2022-08-19T18:24:51.534Z,55.88
2022-08-19T18:27:20.274Z,45.90
2022-08-19T18:29:49.247Z,55.10
2022-08-19T18:32:23.545Z,57.88
2022-08-19T18:34:53.752Z,43.67
2022-08-19T18:37:25.756Z,39.53
2022-08-19T18:40:12.400Z,37.22
2022-08-19T18:43:01.820Z,48.40
2022-08-19T18:45:48.492Z,46.00
2022-08-19T18:48:37.222Z,56.03
2022-08-19T18:51:06.357Z,62.70
2022-08-19T18:53:38.947Z,66.18
2022-08-19T18:56:10.019Z,56.10
2022-08-19T18:58:42.072Z,33.63
2022-08-19T19:01:13.145Z,67.13
2022-08-19T19:03:45.684Z,42.45
2022-08-19T19:06:15.246Z,50.80
2022-08-19T19:08:45.534Z,57.80
2022-08-19T19:11:14.497Z,52.05
2022-08-19T19:13:46.835Z,40.70
2022-08-19T19:16:15.596Z,38.78
2022-08-19T19:18:45.214Z,52.53
2022-08-19T19:21:13.923Z,58.90
2022-08-19T19:23:42.663Z,69.88
2022-08-19T19:26:14.486Z,77.90
2022-08-19T19:28:46.560Z,73.22
2022-08-19T19:31:17.995Z,57.42
2022-08-19T19:33:47.286Z,44.63
2022-08-19T19:36:16.376Z,35.88
2022-08-19T19:38:48.544Z,39.58
2022-08-19T19:41:23.339Z,37.28
2022-08-19T19:44:10.065Z,29.08
2022-08-19T19:46:43.403Z,33.00
2022-08-19T19:49:13.043Z,38.85
2022-08-19T19:51:43.468Z,41.50
2022-08-19T19:54:14.606Z,35.65
2022-08-19T19:56:45.341Z,40.60
2022-08-19T19:59:14.122Z,31.17
2022-08-19T20:01:46.211Z,31.30
2022-08-19T20:04:16.536Z,41.33
2022-08-19T20:06:46.096Z,36.55
2022-08-19T20:09:19.437Z,41.08
2022-08-19T20:11:53.792Z,45.63
2022-08-19T20:14:25.921Z,43.97
2022-08-19T20:16:57.311Z,67.35
2022-08-19T20:19:31.180Z,89.40
2022-08-19T20:21:59.822Z,49.25
2022-08-19T20:24:32.646Z,71.13
2022-08-19T20:27:04.825Z,73.32
2022-08-19T20:29:39.339Z,48.08
2022-08-19T20:32:13.408Z,52.42
2022-08-19T20:34:44.654Z,40.33
2022-08-19T20:37:13.265Z,38.90
2022-08-19T20:39:43.506Z,57.42
2022-08-19T20:42:14.530Z,45.53
2022-08-19T20:44:43.358Z,36.15
2022-08-19T20:47:12.173Z,39.15
2022-08-19T20:49:40.885Z,30.98
2022-08-19T20:52:09.751Z,33.67
2022-08-19T20:54:38.513Z,30.83
2022-08-19T20:57:07.363Z,37.75
2022-08-19T20:59:37.665Z,36.75
2022-08-19T21:02:06.518Z,33.10
2022-08-19T21:04:35.227Z,35.88
2022-08-19T21:07:04.443Z,37.00
2022-08-19T21:09:33.414Z,38.45
2022-08-19T21:12:05.177Z,36.63
2022-08-19T21:14:34.773Z,35.72
2022-08-19T21:17:04.843Z,38.72
2022-08-19T21:19:33.545Z,34.70
2022-08-19T21:22:02.844Z,33.70
2022-08-19T21:24:31.895Z,33.05
2022-08-19T21:27:00.898Z,37.25
2022-08-19T21:29:32.045Z,38.33
2022-08-19T21:32:00.735Z,44.45
2022-08-19T21:34:31.332Z,35.58
2022-08-19T21:37:00.003Z,50.28
2022-08-19T21:39:28.681Z,39.72
2022-08-19T21:41:57.381Z,29.42
2022-08-19T21:44:26.085Z,40.88
2022-08-19T21:46:54.795Z,34.75
2022-08-19T21:49:23.507Z,27.83
2022-08-19T21:51:53.487Z,46.13
2022-08-19T21:54:22.192Z,38.58
2022-08-19T21:56:50.926Z,33.13
2022-08-19T21:59:21.950Z,36.40
2022-08-19T22:02:05.706Z,63.97
2022-08-19T22:04:41.156Z,47.30
2022-08-19T22:07:14.096Z,32.00
2022-08-19T22:09:43.582Z,52.25
2022-08-19T22:12:23.391Z,63.28
2022-08-19T22:14:53.199Z,58.17
2022-08-19T22:17:22.953Z,60.90
2022-08-19T22:19:52.535Z,52.63
2022-08-19T22:22:24.255Z,71.65
2022-08-19T22:24:53.210Z,56.35
2022-08-19T22:27:22.225Z,43.28
2022-08-19T22:29:52.619Z,49.45
2022-08-19T22:32:26.675Z,52.63
2022-08-19T22:35:00.572Z,36.22
2022-08-19T22:37:31.816Z,29.70
2022-08-19T22:40:05.322Z,29.25
2022-08-19T22:42:34.518Z,41.63
2022-08-19T22:45:03.257Z,33.90
2022-08-19T22:47:34.181Z,36.78
2022-08-19T22:50:05.568Z,50.65
2022-08-19T22:52:35.984Z,50.58
2022-08-19T22:55:07.537Z,46.22
2022-08-19T22:57:36.273Z,44.00
2022-08-19T23:00:07.850Z,47.42
2022-08-19T23:02:38.301Z,57.25
2022-08-19T23:05:08.116Z,59.03
2022-08-19T23:07:38.607Z,56.85
2022-08-19T23:10:09.145Z,62.92
2022-08-19T23:12:40.090Z,42.28
2022-08-19T23:15:11.956Z,52.22
2022-08-19T23:17:41.480Z,51.75
2022-08-19T23:20:14.464Z,42.05
2022-08-19T23:22:47.515Z,55.10
2022-08-19T23:25:19.017Z,43.67
2022-08-19T23:28:05.635Z,42.80
2022-08-19T23:30:36.887Z,41.85
2022-08-19T23:33:12.336Z,51.90
2022-08-19T23:35:42.012Z,46.97
2022-08-19T23:38:12.120Z,43.85
2022-08-19T23:40:41.430Z,41.38
2022-08-19T23:43:10.341Z,51.78
2022-08-19T23:45:40.121Z,49.03
2022-08-19T23:48:10.195Z,50.35
2022-08-19T23:50:41.251Z,52.40
2022-08-19T23:53:13.503Z,54.65
2022-08-19T23:55:45.054Z,51.42
2022-08-19T23:58:14.764Z,46.10
